Bv379 — WAI9272 — position and weather

sailwx.info

Track history (hours):
 
Tides and Currents Weather Stations Pressure Air Temp Water Temp Dewpoint Dewpoint Depression Visibility Wind Speed Wind Dir Waves Ship Positions

Bv379

Owner: BIG VALLEY TOWING, VICKSBURG, MS. More information available from US FCC via Universal Licensing System and Coast Guard Vessel Documentation Center.

Last reported at 2017-Nov-17 22:38 UTC. Time now 2017-Nov-18 06:27 UTC.
Position N 32°20' W 090°54'.

Length 12 m.

Type: Passenger vessel. MMSI: 367009830.

Date/timePositionNaut miles runAvg speedWind from/ knotsBaromVisibWave heightAir tempDewpointWater temp
2017-Nov-17 22:38N 32°20' W 090°54'1 5.6
2017-Nov-17 22:31N 32°20' W 090°54'3 5.7
2017-Nov-17 22:00N 32°21' W 090°57'3 3.5
2017-Nov-17 21:05N 32°20' W 090°54'0 3.6
2017-Nov-17 21:00N 32°20' W 090°54'1 2.1
2017-Nov-17 20:30N 32°21' W 090°55'1 1.9
2017-Nov-17 19:50N 32°20' W 090°54'1 2.8
2017-Nov-17 19:31N 32°20' W 090°54'1 1.0
2017-Nov-17 18:35N 32°20' W 090°54'0 5.3
2017-Nov-17 18:30N 32°20' W 090°54'1 1.8
2017-Nov-17 18:00N 32°20' W 090°55'1 1.0
2017-Nov-17 16:53N 32°20' W 090°54'4 9.5
2017-Nov-17 16:30N 32°17' W 090°57'4 7.2
2017-Nov-17 16:00N 32°20' W 090°54'0 0.0
2017-Nov-17 15:12N 32°20' W 090°54'2 8.1
2017-Nov-17 15:01N 32°21' W 090°55'2 3.2
2017-Nov-17 14:30N 32°20' W 090°54'3 6.2
2017-Nov-17 14:01N 32°21' W 090°57'2 4.9
2017-Nov-17 13:30N 32°20' W 090°54'1 0.8
2017-Nov-17 12:27N 32°20' W 090°54'3 6.7
2017-Nov-17 12:00N 32°17' W 090°56'3 5.9
2017-Nov-17 11:30N 32°20' W 090°54'0 0.0
2017-Nov-17 00:42N 32°20' W 090°54'211.2
2017-Nov-17 00:30N 32°21' W 090°56'2 3.7
2017-Nov-16 23:56N 32°20' W 090°54'4 9.7
2017-Nov-16 23:30N 32°16' W 090°57'3 7.2
2017-Nov-16 23:00N 32°19' W 090°54'1 0.1
2017-Nov-16 15:57N 32°20' W 090°54'1 2.6
2017-Nov-16 15:30N 32°19' W 090°54'1 0.9
2017-Nov-16 14:14N 32°20' W 090°54'1 2.6
2017-Nov-16 14:00N 32°20' W 090°54'1 1.2
2017-Nov-16 13:30N 32°21' W 090°53'1 1.3
2017-Nov-16 12:40N 32°20' W 090°54'210.8
2017-Nov-16 12:31N 32°18' W 090°55'2 0.9
2017-Nov-16 10:32N 32°20' W 090°54'0 9.4
2017-Nov-16 10:30N 32°19' W 090°54'2 3.4
2017-Nov-16 10:00N 32°18' W 090°55'2 1.6
2017-Nov-16 08:49N 32°19' W 090°54'3 6.7
2017-Nov-16 08:24N 32°17' W 090°56'1 2.5
2017-Nov-16 07:52N 32°18' W 090°55'2 4.6
2017-Nov-16 07:30N 32°20' W 090°54'0 0.0
2017-Nov-16 04:32N 32°20' W 090°54'0 0.2
2017-Nov-16 04:31N 32°20' W 090°54'3 5.4
2017-Nov-16 04:00N 32°17' W 090°56'3 1.5
2017-Nov-16 02:17N 32°20' W 090°54'1 2.2
2017-Nov-16 02:00N 32°19' W 090°54'1 0.8
2017-Nov-16 01:14N 32°20' W 090°54'2 9.0
2017-Nov-16 01:00N 32°18' W 090°55'2 4.0
2017-Nov-16 00:30N 32°20' W 090°54'0 0.0
2017-Nov-15 20:24N 32°20' W 090°54'2 4.5
2017-Nov-15 20:01N 32°18' W 090°55'2 0.5
2017-Nov-15 16:46N 32°20' W 090°54'1 4.2
2017-Nov-15 16:30N 32°21' W 090°53'1 2.2
2017-Nov-15 16:00N 32°20' W 090°54'1 2.2
2017-Nov-15 15:30N 32°21' W 090°53'1 1.1
2017-Nov-15 14:29N 32°20' W 090°54'2 4.2
2017-Nov-15 14:00N 32°18' W 090°55'2 3.1
2017-Nov-15 13:21N 32°20' W 090°54'0 0.0
2017-Nov-15 12:50N 32°20' W 090°54'0 0.0
2017-Nov-15 07:34N 32°20' W 090°54'110.6
2017-Nov-15 07:31N 32°19' W 090°54'1 2.4
2017-Nov-15 07:00N 32°18' W 090°55'0 0.1
2017-Nov-15 06:12N 32°18' W 090°55'0 1.7
2017-Nov-15 05:57N 32°18' W 090°55'2 3.1
2017-Nov-15 05:16N 32°20' W 090°54'0 0.0
2017-Nov-15 05:00N 32°20' W 090°54'0 0.0
2017-Nov-15 04:31N 32°20' W 090°54'0 0.0
2017-Nov-15 04:01N 32°20' W 090°54'2 3.6
2017-Nov-15 03:30N 32°18' W 090°55'2 2.2
2017-Nov-15 02:43N 32°20' W 090°54'1 2.3
2017-Nov-15 02:18N 32°19' W 090°54'1 3.2
2017-Nov-15 02:00N 32°20' W 090°54'0 0.0
2017-Nov-15 01:31N 32°20' W 090°54'0 0.0
2017-Nov-15 01:01N 32°20' W 090°54'1 1.3
2017-Nov-15 00:30N 32°19' W 090°54'1 0.2
2017-Nov-14 20:31N 32°20' W 090°54'0 5.8
2017-Nov-14 20:30N 32°20' W 090°54'0 0.4
2017-Nov-14 20:00N 32°20' W 090°54'0 0.2
2017-Nov-14 18:39N 32°20' W 090°54'1 9.3
2017-Nov-14 18:31N 32°18' W 090°55'1 0.7
2017-Nov-14 16:34N 32°20' W 090°54'0 3.7
2017-Nov-14 16:30N 32°20' W 090°54'0 0.1
2017-Nov-14 13:08N 32°20' W 090°54'213.1
2017-Nov-14 13:01N 32°18' W 090°55'0 0.4
2017-Nov-14 12:30N 32°18' W 090°55'1 1.2
2017-Nov-14 11:24N 32°20' W 090°54'2 4.3
2017-Nov-14 11:01N 32°18' W 090°55'1 2.2
2017-Nov-14 10:30N 32°19' W 090°54'1 1.4
2017-Nov-14 10:00N 32°20' W 090°54'0 0.0
2017-Nov-14 09:30N 32°20' W 090°54'0 0.0
2017-Nov-14 09:01N 32°20' W 090°54'0 0.4
2017-Nov-14 08:30N 32°19' W 090°54'1 1.5
2017-Nov-14 08:00N 32°19' W 090°54'0 0.9
2017-Nov-14 07:30N 32°19' W 090°54'0 1.0
2017-Nov-14 07:00N 32°20' W 090°54'0 0.0
2017-Nov-14 06:31N 32°20' W 090°54'0 0.0
2017-Nov-14 06:00N 32°20' W 090°54'0 0.0
2017-Nov-14 05:30N 32°20' W 090°54'0 0.0
2017-Nov-14 05:00N 32°20' W 090°54'0 0.0
2017-Nov-14 03:49N 32°20' W 090°54'0 0.0
2017-Nov-14 03:29N 32°20' W 090°54'0 0.0
2017-Nov-14 03:00N 32°20' W 090°54'0 0.0
2017-Nov-14 02:30N 32°20' W 090°54'0 0.0
2017-Nov-14 02:00N 32°20' W 090°54'0 0.0
2017-Nov-14 01:30N 32°20' W 090°54'0 0.0
2017-Nov-14 00:53N 32°20' W 090°54'0 0.0
2017-Nov-14 00:08N 32°20' W 090°54'0 0.1
2017-Nov-13 23:06N 32°20' W 090°54'112.5
2017-Nov-13 23:01N 32°19' W 090°55'1 2.3
2017-Nov-13 22:30N 32°20' W 090°54'3 6.4
2017-Nov-13 22:01N 32°17' W 090°56'3 0.2
2017-Nov-13 01:30N 32°20' W 090°54'0 0.0
2017-Nov-13 01:00N 32°20' W 090°54'0 0.0
2017-Nov-12 23:02N 32°20' W 090°54'0 0.2
2017-Nov-12 23:01N 32°20' W 090°54'0 0.0
2017-Nov-12 22:31N 32°20' W 090°54'0 0.0
2017-Nov-12 21:00N 32°20' W 090°54'2 3.9
2017-Nov-12 20:30N 32°18' W 090°55'2 2.7
2017-Nov-12 19:48N 32°20' W 090°54'2 7.5
2017-Nov-12 19:30N 32°21' W 090°56'2 4.0
2017-Nov-12 19:00N 32°20' W 090°54'0 0.1
2017-Nov-12 14:15N 32°20' W 090°54'2 8.2
2017-Nov-12 14:00N 32°18' W 090°55'2 0.3
2017-Nov-12 06:14N 32°20' W 090°54'1 3.0
2017-Nov-12 06:00N 32°20' W 090°54'0 0.8
2017-Nov-12 05:30N 32°21' W 090°53'1 0.2
2017-Nov-12 01:13N 32°20' W 090°54'0 0.0
2017-Nov-11 23:52N 32°20' W 090°54'3 7.4
2017-Nov-11 23:30N 32°21' W 090°56'1 2.2
2017-Nov-11 23:00N 32°21' W 090°55'2 3.2
2017-Nov-11 22:30N 32°20' W 090°54'0 0.0
2017-Nov-11 22:00N 32°20' W 090°54'0 0.0
2017-Nov-11 21:30N 32°20' W 090°54'0 0.0
2017-Nov-11 21:00N 32°20' W 090°54'0 0.0
2017-Nov-11 20:30N 32°20' W 090°54'1 2.3
2017-Nov-11 20:00N 32°19' W 090°55'1 2.3
2017-Nov-11 19:30N 32°20' W 090°54'0 0.0
2017-Nov-11 19:00N 32°20' W 090°54'0 0.0
2017-Nov-11 18:30N 32°20' W 090°54'0 0.0
2017-Nov-11 18:00N 32°20' W 090°54'2 4.1
2017-Nov-11 17:30N 32°18' W 090°55'0 0.2
2017-Nov-11 16:01N 32°18' W 090°56'017.2
2017-Nov-11 16:00N 32°18' W 090°55'2 0.3
2017-Nov-11 09:18N 32°20' W 090°54'0 0.0
2017-Nov-11 09:00N 32°20' W 090°54'0 0.0
2017-Nov-11 08:30N 32°20' W 090°54'2 3.6
2017-Nov-11 08:00N 32°18' W 090°55'1 2.5
2017-Nov-11 07:30N 32°19' W 090°54'2 4.0
2017-Nov-11 07:01N 32°18' W 090°56'3 5.4
2017-Nov-11 06:26N 32°21' W 090°56'1 1.9
2017-Nov-11 05:59N 32°21' W 090°57'3 5.8
2017-Nov-11 05:31N 32°20' W 090°54'0 0.0
2017-Nov-11 03:23N 32°20' W 090°54'411.7
2017-Nov-11 03:00N 32°21' W 090°59'4 3.7
2017-Nov-11 01:49N 32°20' W 090°54'2 6.8
2017-Nov-11 01:30N 32°18' W 090°55'2 2.3
2017-Nov-11 00:37N 32°20' W 090°54'213.9
2017-Nov-11 00:30N 32°18' W 090°55'2 3.4
2017-Nov-11 00:01N 32°20' W 090°54'3 4.9
2017-Nov-10 23:29N 32°18' W 090°56'1 3.1
2017-Nov-10 23:00N 32°19' W 090°55'1 1.3
2017-Nov-10 22:30N 32°19' W 090°54'0 0.9
2017-Nov-10 22:00N 32°20' W 090°54'0 0.0
2017-Nov-10 21:31N 32°20' W 090°54'0 0.0
2017-Nov-10 21:01N 32°20' W 090°54'0 0.0
2017-Nov-10 20:31N 32°20' W 090°54'0 0.0
2017-Nov-10 20:00N 32°20' W 090°54'3 5.7
2017-Nov-10 19:30N 32°17' W 090°56'3 2.6
2017-Nov-10 18:24N 32°20' W 090°54'0 0.0
2017-Nov-10 17:58N 32°20' W 090°54'2 3.8
2017-Nov-10 17:30N 32°18' W 090°55'2 3.5
2017-Nov-10 17:00N 32°20' W 090°54'0 0.0
2017-Nov-10 16:30N 32°20' W 090°54'0 0.0
2017-Nov-10 16:00N 32°20' W 090°54'0 0.0
2017-Nov-10 15:30N 32°20' W 090°54'0 0.0
2017-Nov-10 15:00N 32°20' W 090°54'0 0.0
2017-Nov-10 14:30N 32°20' W 090°54'1 2.1
2017-Nov-10 14:00N 32°21' W 090°54'1 2.1
2017-Nov-10 13:30N 32°20' W 090°54'0 0.0
2017-Nov-10 13:00N 32°20' W 090°54'0 0.0
2017-Nov-10 04:54N 32°20' W 090°54'2 5.6
2017-Nov-10 04:30N 32°18' W 090°55'1 2.4
2017-Nov-10 04:01N 32°19' W 090°54'1 1.5
2017-Nov-10 03:21N 32°20' W 090°54'2 7.0
2017-Nov-10 03:01N 32°18' W 090°56'4 7.0
2017-Nov-10 02:25N 32°21' W 090°59'4 9.7
2017-Nov-10 02:00N 32°20' W 090°54'1 0.2
2017-Nov-09 21:32N 32°20' W 090°54'0 0.2
2017-Nov-09 21:31N 32°20' W 090°54'0 0.0
2017-Nov-09 21:00N 32°20' W 090°54'0 0.0
2017-Nov-09 20:30N 32°20' W 090°54'0 0.0
2017-Nov-09 20:00N 32°20' W 090°54'0 0.0
2017-Nov-09 19:30N 32°20' W 090°54'1 2.7
2017-Nov-09 19:00N 32°18' W 090°55'1 1.4
2017-Nov-09 18:31N 32°18' W 090°55'2 4.0
2017-Nov-09 18:00N 32°20' W 090°54'0 0.7
2017-Nov-09 17:30N 32°19' W 090°54'0 0.7
2017-Nov-09 17:00N 32°20' W 090°54'0 0.0
2017-Nov-09 16:31N 32°20' W 090°54'3 6.0
2017-Nov-09 16:00N 32°17' W 090°56'3 6.0
2017-Nov-09 15:30N 32°20' W 090°54'0 0.0
2017-Nov-09 09:36N 32°20' W 090°54'114.5
2017-Nov-09 09:30N 32°18' W 090°55'2 3.0
2017-Nov-09 09:01N 32°17' W 090°56'4 5.6
2017-Nov-09 08:21N 32°21' W 090°57'3 9.0
2017-Nov-09 08:01N 32°20' W 090°54'0 0.0
2017-Nov-09 03:55N 32°20' W 090°54'1 3.3
2017-Nov-09 03:30N 32°19' W 090°55'1 0.5
2017-Nov-09 00:34N 32°20' W 090°54'0 6.6
2017-Nov-09 00:30N 32°19' W 090°54'5 5.6
2017-Nov-08 23:42N 32°21' W 090°59'412.5
2017-Nov-08 23:25N 32°20' W 090°55'1 1.3
2017-Nov-08 22:34N 32°20' W 090°54'0 3.3
2017-Nov-08 22:30N 32°19' W 090°54'0 0.1
2017-Nov-08 21:07N 32°20' W 090°54'111.1
2017-Nov-08 20:59N 32°18' W 090°55'1 0.1
2017-Nov-08 09:26N 32°20' W 090°54'0 0.1
2017-Nov-08 08:50N 32°20' W 090°54'0 0.0
2017-Nov-08 04:04N 32°20' W 090°54'0 4.1
2017-Nov-08 04:01N 32°19' W 090°54'1 3.0
2017-Nov-08 03:30N 32°18' W 090°55'2 0.6
2017-Nov-08 00:26N 32°20' W 090°54'  
Track history (hours):
 
Tides and Currents Weather Stations Pressure Air Temp Water Temp Dewpoint Dewpoint Depression Visibility Wind Speed Wind Dir Waves Ship Positions

Bv379

Owner: BIG VALLEY TOWING, VICKSBURG, MS. More information available from US FCC via Universal Licensing System and Coast Guard Vessel Documentation Center.

Last reported at 2017-Nov-17 22:38 UTC. Time now 2017-Nov-18 06:27 UTC.
Position N 32°20' W 090°54'.

Length 12 m.

Type: Passenger vessel. MMSI: 367009830.

Date/timePositionNaut miles runAvg speedWind from/ knotsBaromVisibWave heightAir tempDewpointWater temp
2017-Nov-17 22:38N 32°20' W 090°54'1 5.6
2017-Nov-17 22:31N 32°20' W 090°54'3 5.7
2017-Nov-17 22:00N 32°21' W 090°57'3 3.5
2017-Nov-17 21:05N 32°20' W 090°54'0 3.6
2017-Nov-17 21:00N 32°20' W 090°54'1 2.1
2017-Nov-17 20:30N 32°21' W 090°55'1 1.9
2017-Nov-17 19:50N 32°20' W 090°54'1 2.8
2017-Nov-17 19:31N 32°20' W 090°54'1 1.0
2017-Nov-17 18:35N 32°20' W 090°54'0 5.3
2017-Nov-17 18:30N 32°20' W 090°54'1 1.8
2017-Nov-17 18:00N 32°20' W 090°55'1 1.0
2017-Nov-17 16:53N 32°20' W 090°54'4 9.5
2017-Nov-17 16:30N 32°17' W 090°57'4 7.2
2017-Nov-17 16:00N 32°20' W 090°54'0 0.0
2017-Nov-17 15:12N 32°20' W 090°54'2 8.1
2017-Nov-17 15:01N 32°21' W 090°55'2 3.2
2017-Nov-17 14:30N 32°20' W 090°54'3 6.2
2017-Nov-17 14:01N 32°21' W 090°57'2 4.9
2017-Nov-17 13:30N 32°20' W 090°54'1 0.8
2017-Nov-17 12:27N 32°20' W 090°54'3 6.7
2017-Nov-17 12:00N 32°17' W 090°56'3 5.9
2017-Nov-17 11:30N 32°20' W 090°54'0 0.0
2017-Nov-17 00:42N 32°20' W 090°54'211.2
2017-Nov-17 00:30N 32°21' W 090°56'2 3.7
2017-Nov-16 23:56N 32°20' W 090°54'4 9.7
2017-Nov-16 23:30N 32°16' W 090°57'3 7.2
2017-Nov-16 23:00N 32°19' W 090°54'1 0.1
2017-Nov-16 15:57N 32°20' W 090°54'1 2.6
2017-Nov-16 15:30N 32°19' W 090°54'1 0.9
2017-Nov-16 14:14N 32°20' W 090°54'1 2.6
2017-Nov-16 14:00N 32°20' W 090°54'1 1.2
2017-Nov-16 13:30N 32°21' W 090°53'1 1.3
2017-Nov-16 12:40N 32°20' W 090°54'210.8
2017-Nov-16 12:31N 32°18' W 090°55'2 0.9
2017-Nov-16 10:32N 32°20' W 090°54'0 9.4
2017-Nov-16 10:30N 32°19' W 090°54'2 3.4
2017-Nov-16 10:00N 32°18' W 090°55'2 1.6
2017-Nov-16 08:49N 32°19' W 090°54'3 6.7
2017-Nov-16 08:24N 32°17' W 090°56'1 2.5
2017-Nov-16 07:52N 32°18' W 090°55'2 4.6
2017-Nov-16 07:30N 32°20' W 090°54'0 0.0
2017-Nov-16 04:32N 32°20' W 090°54'0 0.2
2017-Nov-16 04:31N 32°20' W 090°54'3 5.4
2017-Nov-16 04:00N 32°17' W 090°56'3 1.5
2017-Nov-16 02:17N 32°20' W 090°54'1 2.2
2017-Nov-16 02:00N 32°19' W 090°54'1 0.8
2017-Nov-16 01:14N 32°20' W 090°54'2 9.0
2017-Nov-16 01:00N 32°18' W 090°55'2 4.0
2017-Nov-16 00:30N 32°20' W 090°54'0 0.0
2017-Nov-15 20:24N 32°20' W 090°54'2 4.5
2017-Nov-15 20:01N 32°18' W 090°55'2 0.5
2017-Nov-15 16:46N 32°20' W 090°54'1 4.2
2017-Nov-15 16:30N 32°21' W 090°53'1 2.2
2017-Nov-15 16:00N 32°20' W 090°54'1 2.2
2017-Nov-15 15:30N 32°21' W 090°53'1 1.1
2017-Nov-15 14:29N 32°20' W 090°54'2 4.2
2017-Nov-15 14:00N 32°18' W 090°55'2 3.1
2017-Nov-15 13:21N 32°20' W 090°54'0 0.0
2017-Nov-15 12:50N 32°20' W 090°54'0 0.0
2017-Nov-15 07:34N 32°20' W 090°54'110.6
2017-Nov-15 07:31N 32°19' W 090°54'1 2.4
2017-Nov-15 07:00N 32°18' W 090°55'0 0.1
2017-Nov-15 06:12N 32°18' W 090°55'0 1.7
2017-Nov-15 05:57N 32°18' W 090°55'2 3.1
2017-Nov-15 05:16N 32°20' W 090°54'0 0.0
2017-Nov-15 05:00N 32°20' W 090°54'0 0.0
2017-Nov-15 04:31N 32°20' W 090°54'0 0.0
2017-Nov-15 04:01N 32°20' W 090°54'2 3.6
2017-Nov-15 03:30N 32°18' W 090°55'2 2.2
2017-Nov-15 02:43N 32°20' W 090°54'1 2.3
2017-Nov-15 02:18N 32°19' W 090°54'1 3.2
2017-Nov-15 02:00N 32°20' W 090°54'0 0.0
2017-Nov-15 01:31N 32°20' W 090°54'0 0.0
2017-Nov-15 01:01N 32°20' W 090°54'1 1.3
2017-Nov-15 00:30N 32°19' W 090°54'1 0.2
2017-Nov-14 20:31N 32°20' W 090°54'0 5.8
2017-Nov-14 20:30N 32°20' W 090°54'0 0.4
2017-Nov-14 20:00N 32°20' W 090°54'0 0.2
2017-Nov-14 18:39N 32°20' W 090°54'1 9.3
2017-Nov-14 18:31N 32°18' W 090°55'1 0.7
2017-Nov-14 16:34N 32°20' W 090°54'0 3.7
2017-Nov-14 16:30N 32°20' W 090°54'0 0.1
2017-Nov-14 13:08N 32°20' W 090°54'213.1
2017-Nov-14 13:01N 32°18' W 090°55'0 0.4
2017-Nov-14 12:30N 32°18' W 090°55'1 1.2
2017-Nov-14 11:24N 32°20' W 090°54'2 4.3
2017-Nov-14 11:01N 32°18' W 090°55'1 2.2
2017-Nov-14 10:30N 32°19' W 090°54'1 1.4
2017-Nov-14 10:00N 32°20' W 090°54'0 0.0
2017-Nov-14 09:30N 32°20' W 090°54'0 0.0
2017-Nov-14 09:01N 32°20' W 090°54'0 0.4
2017-Nov-14 08:30N 32°19' W 090°54'1 1.5
2017-Nov-14 08:00N 32°19' W 090°54'0 0.9
2017-Nov-14 07:30N 32°19' W 090°54'0 1.0
2017-Nov-14 07:00N 32°20' W 090°54'0 0.0
2017-Nov-14 06:31N 32°20' W 090°54'0 0.0
2017-Nov-14 06:00N 32°20' W 090°54'0 0.0
2017-Nov-14 05:30N 32°20' W 090°54'0 0.0
2017-Nov-14 05:00N 32°20' W 090°54'0 0.0
2017-Nov-14 03:49N 32°20' W 090°54'0 0.0
2017-Nov-14 03:29N 32°20' W 090°54'0 0.0
2017-Nov-14 03:00N 32°20' W 090°54'0 0.0
2017-Nov-14 02:30N 32°20' W 090°54'0 0.0
2017-Nov-14 02:00N 32°20' W 090°54'0 0.0
2017-Nov-14 01:30N 32°20' W 090°54'0 0.0
2017-Nov-14 00:53N 32°20' W 090°54'0 0.0
2017-Nov-14 00:08N 32°20' W 090°54'0 0.1
2017-Nov-13 23:06N 32°20' W 090°54'112.5
2017-Nov-13 23:01N 32°19' W 090°55'1 2.3
2017-Nov-13 22:30N 32°20' W 090°54'3 6.4
2017-Nov-13 22:01N 32°17' W 090°56'3 0.2
2017-Nov-13 01:30N 32°20' W 090°54'0 0.0
2017-Nov-13 01:00N 32°20' W 090°54'0 0.0
2017-Nov-12 23:02N 32°20' W 090°54'0 0.2
2017-Nov-12 23:01N 32°20' W 090°54'0 0.0
2017-Nov-12 22:31N 32°20' W 090°54'0 0.0
2017-Nov-12 21:00N 32°20' W 090°54'2 3.9
2017-Nov-12 20:30N 32°18' W 090°55'2 2.7
2017-Nov-12 19:48N 32°20' W 090°54'2 7.5
2017-Nov-12 19:30N 32°21' W 090°56'2 4.0
2017-Nov-12 19:00N 32°20' W 090°54'0 0.1
2017-Nov-12 14:15N 32°20' W 090°54'2 8.2
2017-Nov-12 14:00N 32°18' W 090°55'2 0.3
2017-Nov-12 06:14N 32°20' W 090°54'1 3.0
2017-Nov-12 06:00N 32°20' W 090°54'0 0.8
2017-Nov-12 05:30N 32°21' W 090°53'1 0.2
2017-Nov-12 01:13N 32°20' W 090°54'0 0.0
2017-Nov-11 23:52N 32°20' W 090°54'3 7.4
2017-Nov-11 23:30N 32°21' W 090°56'1 2.2
2017-Nov-11 23:00N 32°21' W 090°55'2 3.2
2017-Nov-11 22:30N 32°20' W 090°54'0 0.0
2017-Nov-11 22:00N 32°20' W 090°54'0 0.0
2017-Nov-11 21:30N 32°20' W 090°54'0 0.0
2017-Nov-11 21:00N 32°20' W 090°54'0 0.0
2017-Nov-11 20:30N 32°20' W 090°54'1 2.3
2017-Nov-11 20:00N 32°19' W 090°55'1 2.3
2017-Nov-11 19:30N 32°20' W 090°54'0 0.0
2017-Nov-11 19:00N 32°20' W 090°54'0 0.0
2017-Nov-11 18:30N 32°20' W 090°54'0 0.0
2017-Nov-11 18:00N 32°20' W 090°54'2 4.1
2017-Nov-11 17:30N 32°18' W 090°55'0 0.2
2017-Nov-11 16:01N 32°18' W 090°56'017.2
2017-Nov-11 16:00N 32°18' W 090°55'2 0.3
2017-Nov-11 09:18N 32°20' W 090°54'0 0.0
2017-Nov-11 09:00N 32°20' W 090°54'0 0.0
2017-Nov-11 08:30N 32°20' W 090°54'2 3.6
2017-Nov-11 08:00N 32°18' W 090°55'1 2.5
2017-Nov-11 07:30N 32°19' W 090°54'2 4.0
2017-Nov-11 07:01N 32°18' W 090°56'3 5.4
2017-Nov-11 06:26N 32°21' W 090°56'1 1.9
2017-Nov-11 05:59N 32°21' W 090°57'3 5.8
2017-Nov-11 05:31N 32°20' W 090°54'0 0.0
2017-Nov-11 03:23N 32°20' W 090°54'411.7
2017-Nov-11 03:00N 32°21' W 090°59'4 3.7
2017-Nov-11 01:49N 32°20' W 090°54'2 6.8
2017-Nov-11 01:30N 32°18' W 090°55'2 2.3
2017-Nov-11 00:37N 32°20' W 090°54'213.9
2017-Nov-11 00:30N 32°18' W 090°55'2 3.4
2017-Nov-11 00:01N 32°20' W 090°54'3 4.9
2017-Nov-10 23:29N 32°18' W 090°56'1 3.1
2017-Nov-10 23:00N 32°19' W 090°55'1 1.3
2017-Nov-10 22:30N 32°19' W 090°54'0 0.9
2017-Nov-10 22:00N 32°20' W 090°54'0 0.0
2017-Nov-10 21:31N 32°20' W 090°54'0 0.0
2017-Nov-10 21:01N 32°20' W 090°54'0 0.0
2017-Nov-10 20:31N 32°20' W 090°54'0 0.0
2017-Nov-10 20:00N 32°20' W 090°54'3 5.7
2017-Nov-10 19:30N 32°17' W 090°56'3 2.6
2017-Nov-10 18:24N 32°20' W 090°54'0 0.0
2017-Nov-10 17:58N 32°20' W 090°54'2 3.8
2017-Nov-10 17:30N 32°18' W 090°55'2 3.5
2017-Nov-10 17:00N 32°20' W 090°54'0 0.0
2017-Nov-10 16:30N 32°20' W 090°54'0 0.0
2017-Nov-10 16:00N 32°20' W 090°54'0 0.0
2017-Nov-10 15:30N 32°20' W 090°54'0 0.0
2017-Nov-10 15:00N 32°20' W 090°54'0 0.0
2017-Nov-10 14:30N 32°20' W 090°54'1 2.1
2017-Nov-10 14:00N 32°21' W 090°54'1 2.1
2017-Nov-10 13:30N 32°20' W 090°54'0 0.0
2017-Nov-10 13:00N 32°20' W 090°54'0 0.0
2017-Nov-10 04:54N 32°20' W 090°54'2 5.6
2017-Nov-10 04:30N 32°18' W 090°55'1 2.4
2017-Nov-10 04:01N 32°19' W 090°54'1 1.5
2017-Nov-10 03:21N 32°20' W 090°54'2 7.0
2017-Nov-10 03:01N 32°18' W 090°56'4 7.0
2017-Nov-10 02:25N 32°21' W 090°59'4 9.7
2017-Nov-10 02:00N 32°20' W 090°54'1 0.2
2017-Nov-09 21:32N 32°20' W 090°54'0 0.2
2017-Nov-09 21:31N 32°20' W 090°54'0 0.0
2017-Nov-09 21:00N 32°20' W 090°54'0 0.0
2017-Nov-09 20:30N 32°20' W 090°54'0 0.0
2017-Nov-09 20:00N 32°20' W 090°54'0 0.0
2017-Nov-09 19:30N 32°20' W 090°54'1 2.7
2017-Nov-09 19:00N 32°18' W 090°55'1 1.4
2017-Nov-09 18:31N 32°18' W 090°55'2 4.0
2017-Nov-09 18:00N 32°20' W 090°54'0 0.7
2017-Nov-09 17:30N 32°19' W 090°54'0 0.7
2017-Nov-09 17:00N 32°20' W 090°54'0 0.0
2017-Nov-09 16:31N 32°20' W 090°54'3 6.0
2017-Nov-09 16:00N 32°17' W 090°56'3 6.0
2017-Nov-09 15:30N 32°20' W 090°54'0 0.0
2017-Nov-09 09:36N 32°20' W 090°54'114.5
2017-Nov-09 09:30N 32°18' W 090°55'2 3.0
2017-Nov-09 09:01N 32°17' W 090°56'4 5.6
2017-Nov-09 08:21N 32°21' W 090°57'3 9.0
2017-Nov-09 08:01N 32°20' W 090°54'0 0.0
2017-Nov-09 03:55N 32°20' W 090°54'1 3.3
2017-Nov-09 03:30N 32°19' W 090°55'1 0.5
2017-Nov-09 00:34N 32°20' W 090°54'0 6.6
2017-Nov-09 00:30N 32°19' W 090°54'5 5.6
2017-Nov-08 23:42N 32°21' W 090°59'412.5
2017-Nov-08 23:25N 32°20' W 090°55'1 1.3
2017-Nov-08 22:34N 32°20' W 090°54'0 3.3
2017-Nov-08 22:30N 32°19' W 090°54'0 0.1
2017-Nov-08 21:07N 32°20' W 090°54'111.1
2017-Nov-08 20:59N 32°18' W 090°55'1 0.1
2017-Nov-08 09:26N 32°20' W 090°54'0 0.1
2017-Nov-08 08:50N 32°20' W 090°54'0 0.0
2017-Nov-08 04:04N 32°20' W 090°54'0 4.1
2017-Nov-08 04:01N 32°19' W 090°54'1 3.0
2017-Nov-08 03:30N 32°18' W 090°55'2 0.6
2017-Nov-08 00:26N 32°20' W 090°54'  

Dump ship's entire track history